Time;durP1;ratioP1;P1;durP2;ratioP2;P2;SDS_P1;SDS_P2;PMS_P1;PMS_P2;Temp;Humidity;BMP_temperature;BMP_pressure;BME280_temperature;BME280_humidity;BME280_pressure;Samples;Min_cycle;Max_cycle;Signal;HPM_P1;HPM_P2
2021/10/25 00:00:05;;;;;;;9.88;7.45;;;2.80;99.90;;;;;;5132430;27;20513;-73
2021/10/25 00:02:38;;;;;;;11.68;7.20;;;2.70;99.90;;;;;;5134001;27;20198;-73
2021/10/25 00:05:06;;;;;;;9.93;7.40;;;2.70;99.90;;;;;;5131820;27;20043;-74
2021/10/25 00:07:38;;;;;;;9.30;6.50;;;2.70;99.90;;;;;;5132424;27;20412;-73
2021/10/25 00:10:10;;;;;;;9.85;6.40;;;2.70;99.90;;;;;;5132472;27;20050;-73
2021/10/25 00:12:42;;;;;;;8.65;6.88;;;2.70;99.90;;;;;;5132195;27;20054;-74
2021/10/25 00:15:14;;;;;;;8.75;6.78;;;2.70;99.90;;;;;;5131827;27;20035;-73
2021/10/25 00:17:46;;;;;;;9.88;6.82;;;2.70;99.90;;;;;;5132226;27;20489;-74
2021/10/25 00:20:18;;;;;;;9.80;6.32;;;2.70;99.90;;;;;;5133425;27;20039;-74
2021/10/25 00:22:50;;;;;;;12.18;6.97;;;2.70;99.90;;;;;;5133310;27;20057;-74
2021/10/25 00:25:17;;;;;;;10.82;7.68;;;2.70;99.90;;;;;;5131910;27;20050;-73
2021/10/25 00:27:48;;;;;;;9.13;6.90;;;2.60;99.90;;;;;;5131981;27;20104;-74
2021/10/25 00:30:20;;;;;;;10.50;7.50;;;2.60;99.90;;;;;;5131851;27;20459;-74
2021/10/25 00:32:47;;;;;;;9.23;6.95;;;2.60;99.90;;;;;;5131794;27;20051;-73
2021/10/25 00:35:15;;;;;;;8.88;7.00;;;2.60;99.90;;;;;;5131247;27;20481;-74
2021/10/25 00:37:47;;;;;;;8.75;6.38;;;2.50;99.90;;;;;;5131893;27;20107;-73
2021/10/25 00:40:20;;;;;;;11.98;7.13;;;2.50;99.90;;;;;;5131677;27;20417;-74
2021/10/25 00:42:47;;;;;;;8.23;6.10;;;2.40;99.90;;;;;;5131633;27;20047;-74
2021/10/25 00:45:19;;;;;;;9.07;6.90;;;2.40;99.90;;;;;;5131493;27;20059;-73
2021/10/25 00:47:51;;;;;;;8.18;6.53;;;2.40;99.90;;;;;;5131739;27;20039;-73
2021/10/25 00:50:18;;;;;;;7.45;5.72;;;2.40;99.90;;;;;;5131488;27;20039;-74
2021/10/25 00:52:51;;;;;;;8.32;6.05;;;2.40;99.90;;;;;;5132147;27;20122;-73
2021/10/25 00:55:23;;;;;;;6.97;5.65;;;2.30;99.90;;;;;;5132415;27;20031;-74
2021/10/25 00:57:51;;;;;;;6.47;5.13;;;2.30;99.90;;;;;;5132762;27;20041;-73
2021/10/25 01:00:24;;;;;;;7.60;6.57;;;2.30;99.90;;;;;;5132294;27;20039;-74
2021/10/25 01:02:55;;;;;;;5.82;4.82;;;2.30;99.90;;;;;;5130917;27;20054;-73
2021/10/25 01:05:23;;;;;;;6.18;5.15;;;2.30;99.90;;;;;;5130284;27;20038;-73
2021/10/25 01:07:55;;;;;;;7.75;5.47;;;2.30;99.90;;;;;;5130793;27;20039;-73
2021/10/25 01:10:28;;;;;;;6.30;5.32;;;2.30;99.90;;;;;;5130059;27;20035;-73
2021/10/25 01:13:01;;;;;;;6.20;5.10;;;2.30;99.90;;;;;;5130618;27;20050;-73
2021/10/25 01:15:33;;;;;;;6.32;5.40;;;2.30;99.90;;;;;;5130179;28;20493;-73
2021/10/25 01:18:06;;;;;;;6.60;4.82;;;2.30;99.90;;;;;;5130692;28;20485;-74
2021/10/25 01:20:33;;;;;;;6.65;5.75;;;2.30;99.90;;;;;;5130713;28;20470;-74
2021/10/25 01:23:07;;;;;;;7.82;6.32;;;2.30;99.90;;;;;;5130575;28;20043;-73
2021/10/25 01:25:39;;;;;;;6.95;5.97;;;2.20;99.90;;;;;;5130698;28;20039;-74
2021/10/25 01:28:06;;;;;;;7.25;5.85;;;2.20;99.90;;;;;;5130667;28;20107;-74
2021/10/25 01:30:33;;;;;;;7.20;5.70;;;2.20;99.90;;;;;;5130673;28;20057;-74
2021/10/25 01:33:00;;;;;;;6.25;5.65;;;2.20;99.90;;;;;;5130714;28;20436;-74
2021/10/25 01:35:32;;;;;;;7.20;5.85;;;2.20;99.90;;;;;;5130523;28;20040;-74
2021/10/25 01:38:04;;;;;;;7.50;5.88;;;2.10;99.90;;;;;;5130929;28;20483;-74
2021/10/25 01:40:36;;;;;;;8.82;6.00;;;2.10;99.90;;;;;;5131093;28;20043;-74
2021/10/25 01:43:05;;;;;;;8.25;6.38;;;2.10;99.90;;;;;;5130793;28;20047;-74
2021/10/25 01:45:33;;;;;;;6.65;5.88;;;2.10;99.90;;;;;;5130660;28;20428;-73
2021/10/25 01:48:05;;;;;;;6.63;5.97;;;2.20;99.90;;;;;;5132241;28;20057;-74
2021/10/25 01:50:37;;;;;;;10.18;6.55;;;2.20;99.90;;;;;;5130932;28;20386;-74
2021/10/25 01:53:10;;;;;;;11.32;6.32;;;2.20;99.90;;;;;;5130794;28;20035;-74
2021/10/25 01:55:49;;;;;;;8.48;6.93;;;2.20;99.90;;;;;;5114229;28;20421;-74
2021/10/25 01:58:22;;;;;;;8.07;6.55;;;2.20;99.90;;;;;;5130808;28;20046;-73
2021/10/25 02:00:54;;;;;;;7.65;6.25;;;2.20;99.90;;;;;;5114533;28;20042;-74
2021/10/25 02:03:21;;;;;;;9.63;6.35;;;2.20;99.90;;;;;;5130855;27;20050;-73
2021/10/25 02:05:59;;;;;;;6.65;5.63;;;2.20;99.90;;;;;;5118353;27;20088;-74
2021/10/25 02:08:31;;;;;;;10.40;6.68;;;2.20;99.90;;;;;;5134836;27;20118;-74
2021/10/25 02:10:59;;;;;;;9.05;6.75;;;2.20;99.90;;;;;;5135833;27;20035;-73
2021/10/25 02:13:34;;;;;;;8.73;7.25;;;2.20;99.90;;;;;;5134456;27;20053;-74
2021/10/25 02:16:04;;;;;;;8.45;7.07;;;2.20;99.90;;;;;;5117694;27;20483;-74
2021/10/25 02:18:36;;;;;;;10.45;6.45;;;2.20;99.90;;;;;;5134470;27;20095;-74
2021/10/25 02:21:11;;;;;;;9.63;7.22;;;2.20;99.90;;;;;;5134677;27;20468;-74
2021/10/25 02:23:38;;;;;;;9.60;7.07;;;2.20;99.90;;;;;;5134343;27;20654;-74
2021/10/25 02:26:11;;;;;;;11.90;6.93;;;2.10;99.90;;;;;;5134095;27;20063;-74
2021/10/25 02:28:43;;;;;;;10.27;6.90;;;2.10;99.90;;;;;;5135600;27;20043;-74
2021/10/25 02:31:18;;;;;;;7.97;7.00;;;2.10;99.90;;;;;;5134123;27;20459;-74
2021/10/25 02:33:45;;;;;;;14.25;7.75;;;2.10;99.90;;;;;;5135178;27;20386;-74
2021/10/25 02:36:17;;;;;;;9.90;7.28;;;2.10;99.90;;;;;;5133912;27;20400;-74
2021/10/25 02:38:49;;;;;;;10.07;7.32;;;2.10;99.90;;;;;;5134166;27;20036;-74
2021/10/25 02:41:21;;;;;;;9.45;7.28;;;2.10;99.90;;;;;;5134010;27;20047;-74
2021/10/25 02:43:54;;;;;;;10.05;6.88;;;2.10;99.90;;;;;;5133931;27;20378;-73
2021/10/25 02:46:22;;;;;;;9.40;7.25;;;2.00;99.90;;;;;;5133490;27;20142;-73
2021/10/25 02:48:49;;;;;;;9.23;7.18;;;2.00;99.90;;;;;;5133959;27;20134;-73
2021/10/25 02:51:21;;;;;;;9.45;7.00;;;2.00;99.90;;;;;;5134063;27;20391;-73
2021/10/25 02:53:54;;;;;;;8.50;6.65;;;2.00;99.90;;;;;;5133580;27;20134;-73
2021/10/25 02:56:27;;;;;;;9.18;6.70;;;2.00;99.90;;;;;;5133647;27;20043;-73
2021/10/25 02:58:59;;;;;;;9.38;7.00;;;2.00;99.90;;;;;;5133804;27;20131;-73
2021/10/25 03:01:26;;;;;;;10.82;7.18;;;1.90;99.90;;;;;;5133633;27;20162;-73
2021/10/25 03:04:04;;;;;;;13.10;8.00;;;1.90;99.90;;;;;;5133424;27;20082;-74
2021/10/25 03:06:31;;;;;;;11.52;7.50;;;1.90;99.90;;;;;;5133524;27;20038;-73
2021/10/25 03:08:58;;;;;;;13.27;7.40;;;1.90;99.90;;;;;;5133685;27;20035;-73
2021/10/25 03:11:33;;;;;;;8.23;6.88;;;1.90;99.90;;;;;;5133536;27;20108;-73
2021/10/25 03:14:05;;;;;;;11.25;7.22;;;1.90;99.90;;;;;;5133254;27;20401;-73
2021/10/25 03:16:50;;;;;;;8.68;7.15;;;1.90;99.90;;;;;;5132966;27;20348;-73
2021/10/25 03:19:23;;;;;;;8.88;6.22;;;1.90;99.90;;;;;;5134676;27;20424;-73
2021/10/25 03:21:56;;;;;;;8.93;6.47;;;1.90;99.90;;;;;;5134473;27;20138;-73
2021/10/25 03:24:23;;;;;;;9.73;6.93;;;1.90;99.90;;;;;;5132962;27;20039;-73
2021/10/25 03:26:55;;;;;;;11.70;8.35;;;1.90;99.90;;;;;;5133230;27;20474;-73
2021/10/25 03:29:22;;;;;;;13.50;8.85;;;1.90;99.90;;;;;;5134458;27;20141;-73
2021/10/25 03:31:56;;;;;;;8.82;7.45;;;1.90;99.90;;;;;;5133103;27;20528;-73
2021/10/25 03:34:23;;;;;;;10.05;7.68;;;1.90;99.90;;;;;;5132684;27;20609;-73
2021/10/25 03:36:56;;;;;;;14.25;7.85;;;1.90;99.90;;;;;;5133086;27;20043;-73
2021/10/25 03:39:29;;;;;;;14.88;7.10;;;1.90;99.90;;;;;;5132948;27;20043;-73
2021/10/25 03:41:57;;;;;;;13.80;7.93;;;1.90;99.90;;;;;;5132957;27;20459;-73
2021/10/25 03:44:48;;;;;;;9.30;6.97;;;1.90;99.90;;;;;;5132473;27;20050;-73
2021/10/25 03:47:29;;;;;;;10.77;7.90;;;1.90;99.90;;;;;;5132758;27;20055;-73
2021/10/25 03:50:16;;;;;;;10.40;7.63;;;1.90;99.90;;;;;;5132234;27;20527;-73
2021/10/25 03:53:11;;;;;;;10.38;6.93;;;1.90;99.90;;;;;;5131901;27;20524;-73
2021/10/25 04:28:58;;;;;;;12.60;7.70;;;1.70;99.90;;;;;;5109586;28;20048;-73
2021/10/25 04:31:30;;;;;;;9.68;7.63;;;1.70;99.90;;;;;;5110152;28;20069;-73
2021/10/25 04:33:59;;;;;;;11.35;7.60;;;1.60;99.90;;;;;;5109870;28;20078;-74
2021/10/25 04:36:49;;;;;;;9.60;7.07;;;1.60;99.90;;;;;;5115374;27;20040;-73
2021/10/25 04:39:44;;;;;;;9.40;7.15;;;1.60;99.90;;;;;;5120458;27;20512;-74
2021/10/25 04:42:20;;;;;;;10.68;6.97;;;1.60;99.90;;;;;;5102829;28;20422;-74
2021/10/25 04:44:52;;;;;;;10.02;7.05;;;1.50;99.90;;;;;;5108967;28;20040;-73
2021/10/25 04:47:19;;;;;;;12.38;8.63;;;1.50;99.90;;;;;;5109278;28;20054;-73
2021/10/25 04:49:47;;;;;;;12.77;8.68;;;1.50;99.90;;;;;;5109774;28;20036;-73
2021/10/25 04:52:27;;;;;;;11.57;8.07;;;1.50;99.90;;;;;;5110749;28;20498;-73
2021/10/25 04:54:54;;;;;;;10.07;8.00;;;1.50;99.90;;;;;;5110920;27;20067;-73
2021/10/25 04:57:21;;;;;;;8.93;7.22;;;1.50;99.90;;;;;;5130773;27;20110;-73
2021/10/25 04:59:53;;;;;;;11.88;8.00;;;1.50;99.90;;;;;;5131598;27;20087;-73
2021/10/25 05:02:25;;;;;;;9.80;8.18;;;1.50;99.90;;;;;;5114603;27;20039;-75
2021/10/25 05:04:52;;;;;;;11.73;7.88;;;1.60;99.90;;;;;;5130632;27;20055;-73
2021/10/25 05:07:19;;;;;;;9.48;8.05;;;1.50;99.90;;;;;;5130227;27;20561;-73
2021/10/25 05:09:46;;;;;;;10.98;8.38;;;1.60;99.90;;;;;;5130646;27;20069;-73
2021/10/25 05:12:18;;;;;;;10.70;7.80;;;1.60;99.90;;;;;;5130273;27;20138;-73
2021/10/25 05:14:50;;;;;;;11.57;8.57;;;1.60;99.90;;;;;;5130235;27;20122;-73
2021/10/25 05:17:23;;;;;;;13.80;9.82;;;1.60;99.90;;;;;;5130829;27;20047;-73
2021/10/25 05:20:00;;;;;;;12.48;9.30;;;1.70;99.90;;;;;;5130907;28;20041;-73
2021/10/25 05:22:36;;;;;;;12.13;7.93;;;1.60;99.90;;;;;;5130251;28;20501;-73
2021/10/25 05:25:09;;;;;;;12.52;8.68;;;1.60;99.90;;;;;;5113947;28;20505;-73
2021/10/25 05:27:36;;;;;;;20.67;11.18;;;1.60;99.90;;;;;;5130416;28;20067;-74
2021/10/25 05:30:09;;;;;;;18.50;12.50;;;1.60;99.90;;;;;;5130773;28;20075;-73
2021/10/25 05:32:41;;;;;;;18.90;14.95;;;1.60;99.90;;;;;;5130272;28;20062;-73
2021/10/25 05:35:08;;;;;;;26.52;18.02;;;1.60;99.90;;;;;;5131573;28;20036;-73
2021/10/25 05:37:35;;;;;;;29.85;19.73;;;1.60;99.90;;;;;;5130758;28;20043;-73
2021/10/25 05:40:03;;;;;;;31.70;19.23;;;1.50;99.90;;;;;;5116351;27;20482;-73
2021/10/25 05:42:46;;;;;;;23.50;15.15;;;1.50;99.90;;;;;;5088563;28;20503;-73
2021/10/25 05:45:18;;;;;;;19.23;13.02;;;1.50;99.90;;;;;;5108565;28;20529;-73
2021/10/25 05:47:49;;;;;;;16.30;12.55;;;1.50;99.90;;;;;;5103844;28;20051;-73
2021/10/25 05:50:21;;;;;;;24.13;17.77;;;1.50;99.90;;;;;;5094997;28;20146;-73
2021/10/25 05:52:48;;;;;;;32.67;21.77;;;1.50;99.90;;;;;;5090578;28;20047;-74
2021/10/25 05:55:23;;;;;;;27.40;20.02;;;1.50;99.90;;;;;;5110003;27;20118;-74
2021/10/25 05:57:53;;;;;;;21.73;16.08;;;1.50;99.90;;;;;;5113820;28;20035;-74
2021/10/25 06:00:25;;;;;;;20.30;16.33;;;1.50;99.90;;;;;;5108543;27;20036;-74
2021/10/25 06:02:58;;;;;;;15.07;13.20;;;1.50;99.90;;;;;;5093215;28;20036;-74
2021/10/25 06:05:31;;;;;;;14.57;12.27;;;1.50;99.90;;;;;;5111137;28;20040;-73
2021/10/25 06:08:04;;;;;;;;;;;1.40;99.90;;;;;;5113801;28;20048;-74
2021/10/25 06:10:39;;;;;;;12.57;11.27;;;1.50;99.90;;;;;;5093356;28;19924;-74
2021/10/25 06:13:37;;;;;;;15.80;11.43;;;1.50;99.90;;;;;;5094883;28;20036;-74
2021/10/25 06:16:13;;;;;;;12.73;9.75;;;1.50;99.90;;;;;;5096009;28;20411;-74
2021/10/25 06:18:44;;;;;;;12.13;9.25;;;1.40;99.90;;;;;;5105229;28;20036;-73
2021/10/25 06:21:17;;;;;;;;;;;1.40;99.90;;;;;;5087518;28;20085;-73
2021/10/25 06:23:44;;;;;;;15.00;11.93;;;1.40;99.90;;;;;;5112007;28;19920;-74
2021/10/25 06:26:30;;;;;;;18.70;12.40;;;1.40;99.90;;;;;;5094270;28;20540;-73
2021/10/25 06:28:57;;;;;;;19.02;13.50;;;1.50;99.90;;;;;;5109845;28;20050;-74
2021/10/25 06:31:27;;;;;;;17.95;14.07;;;1.50;99.90;;;;;;5110878;28;20050;-74
2021/10/25 06:33:59;;;;;;;18.95;14.57;;;1.50;99.90;;;;;;5112919;28;20050;-74
2021/10/25 06:36:52;;;;;;;27.90;16.17;;;1.50;99.90;;;;;;5113279;28;20104;-73
2021/10/25 06:39:23;;;;;;;27.02;17.27;;;1.60;99.90;;;;;;5114508;28;20097;-74
2021/10/25 06:41:54;;;;;;;30.70;17.33;;;1.60;99.90;;;;;;5112527;28;20085;-74
2021/10/25 06:45:20;;;;;;;34.08;20.42;;;1.60;99.90;;;;;;5101477;28;20039;-73
2021/10/25 06:47:37;;;;;;;23.90;16.38;;;1.70;99.90;;;;;;5090304;28;20478;-74
2021/10/25 06:50:11;;;;;;;22.38;14.15;;;1.70;99.90;;;;;;5103263;28;20044;-74
2021/10/25 06:52:48;;;;;;;28.48;16.55;;;1.70;99.90;;;;;;5112600;28;20125;-74
2021/10/25 06:55:22;;;;;;;32.45;21.85;;;1.70;99.90;;;;;;5112149;28;20398;-74
2021/10/25 06:58:01;;;;;;;27.33;17.50;;;1.80;99.90;;;;;;5096798;28;20057;-74
2021/10/25 07:00:33;;;;;;;19.85;14.43;;;1.80;99.90;;;;;;5113624;28;20043;-74
2021/10/25 07:03:00;;;;;;;17.45;13.07;;;1.90;99.90;;;;;;5112411;28;20051;-74
2021/10/25 07:05:36;;;;;;;23.85;12.90;;;2.00;99.90;;;;;;5111839;28;20052;-74
2021/10/25 07:08:07;;;;;;;16.05;11.73;;;2.00;99.90;;;;;;5112455;28;20044;-74
2021/10/25 07:10:36;;;;;;;52.47;27.17;;;2.00;99.90;;;;;;5112820;28;20066;-74
2021/10/25 07:13:03;;;;;;;50.35;32.60;;;2.00;99.90;;;;;;5111938;28;20059;-74
2021/10/25 07:15:38;;;;;;;69.90;40.90;;;2.00;99.90;;;;;;5095567;28;20123;-74
2021/10/25 07:18:21;;;;;;;177.60;78.88;;;2.10;99.90;;;;;;5111861;28;20383;-74
2021/10/25 07:23:57;;;;;;;55.42;33.85;;;2.10;99.90;;;;;;5110602;28;20077;-74
2021/10/25 08:00:19;;;;;;;33.65;24.65;;;2.80;99.90;;;;;;5112721;28;20067;-73
2021/10/25 08:10:28;;;;;;;71.75;33.28;;;3.10;99.90;;;;;;5110988;28;20040;-73
2021/10/25 08:13:01;;;;;;;63.35;28.42;;;3.20;99.90;;;;;;5110809;28;20039;-73
2021/10/25 08:15:38;;;;;;;36.60;21.02;;;3.30;99.90;;;;;;5089694;28;20524;-73
2021/10/25 08:20:53;;;;;;;25.73;17.38;;;3.40;99.90;;;;;;5112210;28;20456;-73
2021/10/25 08:23:21;;;;;;;27.83;18.20;;;3.50;99.90;;;;;;5110737;28;20039;-73
2021/10/25 08:25:56;;;;;;;26.30;17.58;;;3.70;99.90;;;;;;5109985;28;20067;-73
2021/10/25 08:28:23;;;;;;;25.38;16.75;;;3.70;99.90;;;;;;5111114;28;20048;-73
2021/10/25 08:30:51;;;;;;;24.63;16.00;;;3.80;99.90;;;;;;5110077;28;20092;-73
2021/10/25 08:36:11;;;;;;;33.67;20.63;;;3.90;99.90;;;;;;5106363;28;20047;-73
2021/10/25 08:41:44;;;;;;;41.35;25.90;;;4.00;99.90;;;;;;5110366;28;20058;-74
2021/10/25 08:44:16;;;;;;;41.47;25.45;;;4.10;99.90;;;;;;5093890;28;20035;-74
2021/10/25 08:46:54;;;;;;;44.70;28.35;;;4.10;99.90;;;;;;5092590;28;20413;-74
2021/10/25 08:49:27;;;;;;;42.08;22.52;;;4.20;99.90;;;;;;5090160;28;20502;-74
2021/10/25 08:52:00;;;;;;;32.75;19.73;;;4.30;99.90;;;;;;5089968;28;20422;-74
2021/10/25 08:54:35;;;;;;;18.42;13.38;;;4.40;99.90;;;;;;5089558;28;20482;-74
2021/10/25 08:57:02;;;;;;;21.90;14.70;;;4.40;99.90;;;;;;5089698;28;20087;-74
2021/10/25 08:59:35;;;;;;;47.50;28.27;;;4.50;99.90;;;;;;5108818;28;20147;-74
2021/10/25 09:02:08;;;;;;;156.63;75.88;;;4.60;99.90;;;;;;5106676;28;20043;-74
2021/10/25 09:05:04;;;;;;;56.63;34.13;;;4.70;99.90;;;;;;5108675;28;20047;-74
2021/10/25 09:07:52;;;;;;;35.53;18.85;;;4.90;99.90;;;;;;5109752;28;20065;-74
2021/10/25 09:10:31;;;;;;;30.85;19.60;;;5.00;99.90;;;;;;5073379;28;20062;-74
2021/10/25 09:13:05;;;;;;;;;;;5.10;99.90;;;;;;5108872;28;20040;-74
2021/10/25 09:15:40;;;;;;;14.77;9.65;;;5.20;99.90;;;;;;5105524;28;19919;-74
2021/10/25 09:18:32;;;;;;;17.38;9.00;;;5.30;99.90;;;;;;5106028;28;20108;-74
2021/10/25 09:21:06;;;;;;;17.10;12.70;;;5.40;99.90;;;;;;5111193;28;20042;-74
2021/10/25 09:23:49;;;;;;;19.50;13.15;;;5.50;99.90;;;;;;5109879;28;20097;-74
2021/10/25 09:26:28;;;;;;;16.90;13.23;;;5.60;99.90;;;;;;5108444;28;20122;-74
2021/10/25 09:29:00;;;;;;;12.23;9.50;;;5.70;99.90;;;;;;5093160;28;20043;-74
2021/10/25 09:31:34;;;;;;;11.82;9.80;;;5.80;99.90;;;;;;5109081;28;20051;-74
2021/10/25 09:34:13;;;;;;;19.77;9.45;;;5.90;99.90;;;;;;5108273;28;20058;-74
2021/10/25 09:37:06;;;;;;;16.77;9.88;;;6.00;99.90;;;;;;5109783;28;20054;-74
2021/10/25 09:39:56;;;;;;;12.77;9.68;;;6.10;99.90;;;;;;5073818;28;20568;-74
2021/10/25 09:45:35;;;;;;;16.25;13.35;;;6.30;99.90;;;;;;5108513;28;20042;-74
2021/10/25 09:51:09;;;;;;;13.80;11.00;;;6.60;99.90;;;;;;5109432;28;20051;-74
2021/10/25 09:53:47;;;;;;;18.27;14.48;;;6.60;99.90;;;;;;5109544;28;20446;-74
2021/10/25 09:56:17;;;;;;;13.65;11.10;;;6.70;99.90;;;;;;5109167;28;20395;-74
2021/10/25 09:59:37;;;;;;;16.42;10.85;;;6.80;99.90;;;;;;5107671;28;20285;-74
2021/10/25 10:02:10;;;;;;;15.15;10.60;;;6.90;99.90;;;;;;5101406;28;20458;-74
2021/10/25 10:04:46;;;;;;;14.38;10.65;;;7.00;99.90;;;;;;5097950;28;20101;-74
2021/10/25 10:07:25;;;;;;;16.45;10.98;;;7.10;99.90;;;;;;5104725;28;20054;-74
2021/10/25 10:10:07;;;;;;;20.13;10.07;;;7.30;99.90;;;;;;5094145;28;20664;-74
2021/10/25 10:12:44;;;;;;;16.13;11.48;;;7.40;99.90;;;;;;5105875;28;20467;-74
2021/10/25 10:15:13;;;;;;;12.73;9.20;;;7.40;99.90;;;;;;5103407;28;20043;-74
2021/10/25 10:17:50;;;;;;;10.98;8.98;;;7.40;99.90;;;;;;5103396;28;20120;-74
2021/10/25 10:20:29;;;;;;;13.68;9.27;;;7.40;99.90;;;;;;5101739;28;20840;-74
2021/10/25 10:23:03;;;;;;;14.13;9.23;;;7.50;99.90;;;;;;5092883;28;20043;-74
2021/10/25 10:25:48;;;;;;;12.07;8.88;;;7.60;99.90;;;;;;5076636;28;20542;-74
2021/10/25 10:28:39;;;;;;;10.10;8.18;;;7.60;99.90;;;;;;5113397;28;20500;-74
2021/10/25 10:31:10;;;;;;;10.68;8.98;;;7.70;99.90;;;;;;5101655;28;20048;-74
2021/10/25 10:34:14;;;;;;;10.30;8.13;;;7.80;99.90;;;;;;5088313;28;20134;-74
2021/10/25 10:36:55;;;;;;;11.40;8.77;;;7.90;99.90;;;;;;5093809;28;20506;-74
2021/10/25 10:39:40;;;;;;;11.38;8.20;;;7.90;99.90;;;;;;5112443;28;20039;-74
2021/10/25 10:42:36;;;;;;;10.05;7.93;;;7.90;99.90;;;;;;5096518;28;20531;-75
2021/10/25 10:45:17;;;;;;;10.18;7.22;;;8.00;99.90;;;;;;5089764;28;20049;-74
2021/10/25 10:48:02;;;;;;;12.48;8.05;;;8.00;99.90;;;;;;5096436;28;20070;-74
2021/10/25 10:50:56;;;;;;;29.67;9.38;;;8.10;99.90;;;;;;5112281;28;20048;-74
2021/10/25 10:53:32;;;;;;;14.98;9.82;;;8.20;99.90;;;;;;5096873;28;20085;-74
2021/10/25 10:56:53;;;;;;;14.10;8.48;;;8.20;99.90;;;;;;5112666;28;20048;-74
2021/10/25 10:59:29;;;;;;;11.60;8.80;;;8.20;99.90;;;;;;5093932;28;20043;-74
2021/10/25 11:01:59;;;;;;;11.80;8.40;;;8.40;99.90;;;;;;5106048;28;20058;-75
2021/10/25 11:04:33;;;;;;;11.85;9.15;;;8.40;99.90;;;;;;5101113;28;20110;-74
2021/10/25 11:07:05;;;;;;;11.32;9.35;;;8.50;99.90;;;;;;5112396;28;20043;-75
2021/10/25 11:09:37;;;;;;;9.35;8.05;;;8.60;99.90;;;;;;5113703;28;20122;-74
2021/10/25 11:12:12;;;;;;;13.15;8.85;;;8.70;99.90;;;;;;5109726;28;20036;-74
2021/10/25 11:14:39;;;;;;;13.60;10.15;;;8.80;99.90;;;;;;5100385;28;20039;-74
2021/10/25 11:19:46;;;;;;;11.18;9.18;;;9.00;99.90;;;;;;5101394;28;20875;-73
2021/10/25 11:22:34;;;;;;;12.80;10.35;;;9.10;99.90;;;;;;5107993;28;20368;-74
2021/10/25 11:25:04;;;;;;;12.93;10.07;;;9.20;99.90;;;;;;5112433;28;20040;-75
2021/10/25 11:27:39;;;;;;;13.40;8.48;;;9.30;99.90;;;;;;5111233;28;20754;-73
2021/10/25 11:30:07;;;;;;;11.40;9.55;;;9.40;99.90;;;;;;5087115;28;20036;-76
2021/10/25 11:32:40;;;;;;;12.95;10.70;;;9.50;99.90;;;;;;5104393;28;20050;-75
2021/10/25 11:35:12;;;;;;;11.88;8.73;;;9.60;99.90;;;;;;5110833;28;20128;-75
2021/10/25 11:37:51;;;;;;;12.43;9.43;;;9.70;99.90;;;;;;5112378;28;20036;-75
2021/10/25 11:40:25;;;;;;;15.70;12.27;;;9.80;99.90;;;;;;5111625;28;20506;-75
2021/10/25 11:42:52;;;;;;;18.10;11.85;;;9.80;99.90;;;;;;5110159;28;20550;-75
2021/10/25 11:45:25;;;;;;;13.93;9.85;;;9.80;99.90;;;;;;5112362;28;20043;-75
2021/10/25 11:47:57;;;;;;;14.10;10.23;;;9.90;99.90;;;;;;5111608;28;20130;-74
2021/10/25 11:50:26;;;;;;;14.93;9.30;;;10.00;99.90;;;;;;5097195;28;20069;-75
2021/10/25 11:53:00;;;;;;;15.80;9.13;;;10.10;99.90;;;;;;5107144;28;20047;-74
2021/10/25 11:55:29;;;;;;;14.88;9.05;;;10.20;99.90;;;;;;5110652;28;20187;-75
2021/10/25 11:58:13;;;;;;;11.73;8.88;;;10.20;99.90;;;;;;5111247;28;20062;-75
2021/10/25 12:00:44;;;;;;;12.80;9.35;;;10.20;99.90;;;;;;5094247;28;20062;-75
2021/10/25 12:03:30;;;;;;;13.50;8.95;;;10.40;99.90;;;;;;5090827;28;20051;-75
2021/10/25 12:06:00;;;;;;;15.10;9.63;;;10.40;99.90;;;;;;5092548;28;20494;-75
2021/10/25 12:08:27;;;;;;;9.73;8.02;;;10.50;99.90;;;;;;5110845;28;20032;-73
2021/10/25 12:10:59;;;;;;;15.63;9.55;;;10.60;99.90;;;;;;5111088;28;20039;-76
2021/10/25 12:13:25;;;;;;;14.73;9.00;;;10.70;99.90;;;;;;5108025;28;20036;-76
2021/10/25 12:15:59;;;;;;;11.38;8.80;;;10.80;99.90;;;;;;5107110;28;20043;-75
2021/10/25 12:18:27;;;;;;;16.20;9.60;;;10.80;99.90;;;;;;5104128;28;20043;-75
2021/10/25 12:20:55;;;;;;;13.10;9.10;;;10.90;99.90;;;;;;5112065;28;20125;-75
2021/10/25 12:23:24;;;;;;;11.75;9.02;;;11.00;99.90;;;;;;5106555;28;20105;-75
2021/10/25 12:26:03;;;;;;;11.48;8.75;;;11.10;99.90;;;;;;5103100;28;20040;-74
2021/10/25 12:28:34;;;;;;;11.60;8.73;;;11.20;99.90;;;;;;5101433;28;20043;-73
2021/10/25 12:31:06;;;;;;;12.13;9.15;;;11.20;99.90;;;;;;5106639;28;20040;-76
2021/10/25 12:33:37;;;;;;;11.02;8.18;;;11.30;99.90;;;;;;5108724;28;20047;-75
2021/10/25 12:36:18;;;;;;;12.50;8.70;;;11.40;99.90;;;;;;5100551;28;20047;-75
2021/10/25 12:38:52;;;;;;;12.40;8.68;;;11.50;99.90;;;;;;5098707;28;20090;-74
2021/10/25 12:41:20;;;;;;;9.93;8.40;;;11.60;99.90;;;;;;5110110;28;20108;-74
2021/10/25 12:43:57;;;;;;;13.43;9.18;;;11.70;99.90;;;;;;5108417;28;20051;-74
2021/10/25 12:46:33;;;;;;;12.30;8.98;;;11.90;99.90;;;;;;5102887;28;20043;-75
2021/10/25 12:49:05;;;;;;;11.05;8.52;;;12.00;99.90;;;;;;5109126;28;20047;-75
2021/10/25 12:51:37;;;;;;;11.73;9.35;;;12.10;99.90;;;;;;5110310;28;20048;-75
2021/10/25 12:54:10;;;;;;;10.63;8.40;;;12.20;99.90;;;;;;5107628;28;20134;-74
2021/10/25 12:56:45;;;;;;;10.93;9.02;;;12.30;99.90;;;;;;5090428;28;20093;-74
2021/10/25 12:59:19;;;;;;;12.25;8.90;;;12.30;99.90;;;;;;5107971;28;20401;-75
2021/10/25 13:01:54;;;;;;;12.18;9.65;;;12.30;99.90;;;;;;5100270;28;20040;-74
2021/10/25 13:04:22;;;;;;;12.65;9.20;;;12.20;99.90;;;;;;5108579;28;20038;-75
2021/10/25 13:06:55;;;;;;;11.03;8.50;;;12.20;99.90;;;;;;5089781;28;20059;-75
2021/10/25 13:09:23;;;;;;;11.65;9.25;;;12.20;99.90;;;;;;5108816;28;20075;-75
2021/10/25 13:11:51;;;;;;;11.27;8.70;;;12.20;99.90;;;;;;5109933;28;20048;-75
2021/10/25 13:14:18;;;;;;;11.13;8.65;;;12.20;99.90;;;;;;5109985;28;20043;-76
2021/10/25 13:16:49;;;;;;;12.10;8.90;;;12.10;99.90;;;;;;5101695;28;20122;-74
2021/10/25 13:19:18;;;;;;;12.85;9.70;;;12.10;99.90;;;;;;5091449;28;20066;-76
2021/10/25 13:21:46;;;;;;;16.30;10.45;;;12.10;99.90;;;;;;5106052;28;20543;-75
2021/10/25 13:24:18;;;;;;;11.80;9.10;;;12.10;99.90;;;;;;5105181;28;20055;-76
2021/10/25 13:26:51;;;;;;;9.98;8.68;;;12.10;99.90;;;;;;5083683;28;20051;-74
2021/10/25 13:29:23;;;;;;;11.18;8.15;;;12.10;99.90;;;;;;5089631;28;20040;-74
2021/10/25 13:31:55;;;;;;;10.90;8.00;;;12.10;99.90;;;;;;5089876;28;20092;-74
2021/10/25 13:34:27;;;;;;;11.85;9.02;;;12.10;99.90;;;;;;5108878;28;20035;-74
2021/10/25 13:36:58;;;;;;;12.18;9.57;;;12.20;99.90;;;;;;5092015;28;20490;-74
2021/10/25 13:39:30;;;;;;;12.20;9.30;;;12.30;99.90;;;;;;5101032;28;20494;-73
2021/10/25 13:41:57;;;;;;;12.20;9.73;;;12.30;99.90;;;;;;5105714;28;20036;-73
2021/10/25 13:44:29;;;;;;;10.88;8.48;;;12.40;99.90;;;;;;5102015;28;20032;-74
2021/10/25 13:47:01;;;;;;;12.95;8.98;;;12.40;99.90;;;;;;5093567;28;20119;-74
2021/10/25 13:49:33;;;;;;;11.57;8.95;;;12.30;99.90;;;;;;5089486;28;20094;-74
2021/10/25 13:52:00;;;;;;;15.48;10.30;;;12.30;99.90;;;;;;5089474;28;20048;-74
2021/10/25 13:54:32;;;;;;;13.00;10.73;;;12.40;99.90;;;;;;5104871;28;20043;-74
2021/10/25 13:57:00;;;;;;;11.55;9.07;;;12.50;99.90;;;;;;5104180;28;20061;-75
2021/10/25 13:59:32;;;;;;;10.88;8.98;;;12.60;99.90;;;;;;5090466;28;20040;-74
2021/10/25 14:02:07;;;;;;;14.20;9.35;;;12.70;99.90;;;;;;5112981;28;20040;-74
2021/10/25 14:04:47;;;;;;;12.55;9.57;;;12.80;99.90;;;;;;5107559;28;20261;-74
2021/10/25 14:07:22;;;;;;;10.25;8.52;;;12.80;99.90;;;;;;5079346;28;20036;-74
2021/10/25 14:09:57;;;;;;;10.75;9.23;;;12.80;99.90;;;;;;5100207;28;20465;-74
2021/10/25 14:12:30;;;;;;;11.30;8.35;;;12.70;99.90;;;;;;5106506;28;20494;-74
2021/10/25 14:17:39;;;;;;;13.48;11.52;;;12.60;99.90;;;;;;5112124;28;20088;-74
2021/10/25 14:20:13;;;;;;;18.20;12.18;;;12.60;99.90;;;;;;5114917;28;20096;-74
2021/10/25 14:22:41;;;;;;;11.32;9.43;;;12.50;99.90;;;;;;5114750;28;20040;-74
2021/10/25 14:25:14;;;;;;;11.80;9.85;;;12.40;99.90;;;;;;5111382;28;20040;-74
2021/10/25 14:27:41;;;;;;;12.57;10.10;;;12.40;99.90;;;;;;5113987;28;20355;-74
2021/10/25 14:30:14;;;;;;;11.88;9.80;;;12.30;99.90;;;;;;5114569;28;20563;-74
2021/10/25 14:32:45;;;;;;;12.07;9.68;;;12.40;99.90;;;;;;5113268;28;20051;-75
2021/10/25 14:35:18;;;;;;;10.85;8.32;;;12.40;99.90;;;;;;5113023;28;20048;-74
2021/10/25 14:37:46;;;;;;;9.25;7.68;;;12.40;99.90;;;;;;5113317;28;20047;-74
2021/10/25 14:40:23;;;;;;;10.27;8.00;;;12.40;99.90;;;;;;5113243;28;20493;-75
2021/10/25 14:42:58;;;;;;;13.07;8.75;;;12.30;99.90;;;;;;5113159;28;20043;-74
2021/10/25 14:45:34;;;;;;;9.63;7.60;;;12.20;99.90;;;;;;5113994;28;20064;-74
2021/10/25 14:48:19;;;;;;;10.23;8.30;;;12.10;99.90;;;;;;5113445;28;20084;-74
2021/10/25 14:53:47;;;;;;;9.63;7.07;;;12.00;99.90;;;;;;5114028;28;20039;-74
2021/10/25 14:56:20;;;;;;;10.10;7.35;;;11.90;99.90;;;;;;5113707;28;20039;-77
2021/10/25 14:58:53;;;;;;;13.07;6.85;;;11.80;99.90;;;;;;5114476;27;20032;-74